Trabzon — 9HA2783 — position and weather

sailwx.info

Track history (hours):
 
Tides and Currents Weather Stations Pressure Air Temp Water Temp Dewpoint Dewpoint Depression Visibility Wind Speed Wind Dir Waves Ship Positions

Trabzon

Last reported at 2016-Jul-30 09:25 UTC. Time now 2016-Aug-31 07:57 UTC.
Position N 35°07' E 119°25'.
Warning: this ship's position is 31 days out of date.

Length 229 m; draft 14.7 m.

Type: Cargo ship. MMSI: 215679000.

Date/timePositionNaut miles runAvg speedWind from/ knotsBaromVisibWave heightAir tempDewpointWater temp
2016-Jul-30 09:25N 35°07' E 119°25'0 0.0
2016-Jul-29 06:17N 35°07' E 119°25'2 2.9
2016-Jul-29 05:33N 35°06' E 119°28'8 8.1
2016-Jul-29 04:31N 35°07' E 119°38'6 0.3
2016-Jul-28 10:20N 35°06' E 119°45'14112.8
2016-Jul-27 23:18N 34°41' E 122°34'1013.4
2016-Jul-27 22:33N 34°38' E 122°46'  
2016-Jul-25 13:20N 22°46' E 119°33'  
2016-Jul-20 17:33N 01°16' E 104°10'1211.1
2016-Jul-20 16:30N 01°16' E 103°58'2 2.0
2016-Jul-20 15:31N 01°17' E 103°57'0 0.0
2016-Jul-20 13:16N 01°17' E 103°57'0 0.1
2016-Jul-20 12:28N 01°17' E 103°57'0 0.0
2016-Jul-20 11:28N 01°17' E 103°57'0 0.0
2016-Jul-20 10:28N 01°17' E 103°57'  
Track history (hours):
 
Tides and Currents Weather Stations Pressure Air Temp Water Temp Dewpoint Dewpoint Depression Visibility Wind Speed Wind Dir Waves Ship Positions

Trabzon

Last reported at 2016-Jul-30 09:25 UTC. Time now 2016-Aug-31 07:57 UTC.
Position N 35°07' E 119°25'.
Warning: this ship's position is 31 days out of date.

Length 229 m; draft 14.7 m.

Type: Cargo ship. MMSI: 215679000.

Date/timePositionNaut miles runAvg speedWind from/ knotsBaromVisibWave heightAir tempDewpointWater temp
2016-Jul-30 09:25N 35°07' E 119°25'0 0.0
2016-Jul-29 06:17N 35°07' E 119°25'2 2.9
2016-Jul-29 05:33N 35°06' E 119°28'8 8.1
2016-Jul-29 04:31N 35°07' E 119°38'6 0.3
2016-Jul-28 10:20N 35°06' E 119°45'14112.8
2016-Jul-27 23:18N 34°41' E 122°34'1013.4
2016-Jul-27 22:33N 34°38' E 122°46'  
2016-Jul-25 13:20N 22°46' E 119°33'  
2016-Jul-20 17:33N 01°16' E 104°10'1211.1
2016-Jul-20 16:30N 01°16' E 103°58'2 2.0
2016-Jul-20 15:31N 01°17' E 103°57'0 0.0
2016-Jul-20 13:16N 01°17' E 103°57'0 0.1
2016-Jul-20 12:28N 01°17' E 103°57'0 0.0
2016-Jul-20 11:28N 01°17' E 103°57'0 0.0
2016-Jul-20 10:28N 01°17' E 103°57'  

Dump ship's entire track history